Houston, Texas
Traffic Map
Current Weather Conditions
Houston, Texas
Broken Clouds
Broken Clouds
27°
Feels Like: 30°
Wind Chill: 27° Ceiling: 7000
Heat Index: 30° Visibility: 7mi
Dew Point: 23° Wind: 6mph
Humidity: 79% Direction: 340° (NNW)
Pressure: 30in Gusts: 0mph
Raw Report DataKIAH 291400Z 34005KT 7SM SCT006 BKN070 27/23 A3000 RMK AO2 SCT V BKN
Traffic Incident Summary
Active as of:
Severity:
Category:
InformationThere was an issue retrieving the traffic information for this location. Please try a different location or try again shortly.
Advertisements
Track Severe Weather on mobile